createdAt,value
2019-05-19T00:02:46.248Z,75.72
2019-05-19T00:05:33.592Z,73.64
2019-05-19T00:08:20.707Z,73.99
2019-05-19T00:11:07.540Z,73.14
2019-05-19T00:13:55.910Z,74.00
2019-05-19T00:16:43.073Z,74.88
2019-05-19T00:19:31.377Z,73.39
2019-05-19T00:22:19.416Z,73.62
2019-05-19T00:25:06.819Z,75.20
2019-05-19T00:27:54.303Z,75.35
2019-05-19T00:30:49.270Z,75.35
2019-05-19T00:33:36.497Z,75.74
2019-05-19T00:36:25.876Z,75.96
2019-05-19T00:39:10.642Z,76.17
2019-05-19T00:41:57.559Z,76.30
2019-05-19T00:44:45.315Z,76.69
2019-05-19T00:47:32.514Z,77.39
2019-05-19T00:50:19.436Z,78.02
2019-05-19T00:53:06.753Z,77.91
2019-05-19T00:55:53.853Z,77.56
2019-05-19T00:58:41.574Z,76.96
2019-05-19T01:01:30.941Z,76.79
2019-05-19T01:04:17.681Z,77.32
2019-05-19T01:07:04.784Z,77.56
2019-05-19T01:09:51.526Z,77.74
2019-05-19T01:12:38.813Z,77.96
2019-05-19T01:15:39.879Z,77.40
2019-05-19T01:18:27.173Z,77.02
2019-05-19T01:21:15.312Z,75.99
2019-05-19T01:24:02.330Z,75.91
2019-05-19T01:26:49.424Z,75.83
2019-05-19T01:29:36.137Z,75.60
2019-05-19T01:32:24.176Z,76.59
2019-05-19T01:35:11.160Z,76.86
2019-05-19T01:37:57.975Z,77.14
2019-05-19T01:40:46.650Z,76.40
2019-05-19T01:43:33.786Z,77.13
2019-05-19T01:49:30.444Z,76.86
2019-05-19T01:52:18.042Z,77.38
2019-05-19T01:55:08.541Z,77.51
2019-05-19T01:57:56.884Z,76.08
2019-05-19T02:00:44.325Z,76.51
2019-05-19T02:03:32.450Z,77.52
2019-05-19T02:06:34.326Z,78.17
2019-05-19T02:09:28.630Z,78.17
2019-05-19T02:12:15.716Z,78.18
2019-05-19T02:15:03.202Z,78.62
2019-05-19T02:17:50.759Z,76.96
2019-05-19T02:20:38.588Z,77.94
2019-05-19T02:23:39.971Z,78.29
2019-05-19T02:26:27.454Z,78.71
2019-05-19T02:29:15.387Z,78.27
2019-05-19T02:32:02.200Z,78.02
2019-05-19T02:34:50.262Z,78.01
2019-05-19T02:37:38.184Z,78.05
2019-05-19T02:40:24.923Z,77.40
2019-05-19T02:43:11.819Z,77.61
2019-05-19T02:45:59.830Z,77.80
2019-05-19T02:51:53.435Z,77.44
2019-05-19T02:54:41.460Z,78.57
2019-05-19T02:57:28.486Z,77.70
2019-05-19T03:00:16.089Z,78.71
2019-05-19T03:03:03.087Z,79.18
2019-05-19T03:05:53.517Z,79.81
2019-05-19T03:08:40.591Z,78.41
2019-05-19T03:11:27.554Z,77.33
2019-05-19T03:14:14.478Z,78.26
2019-05-19T03:17:01.292Z,78.67
2019-05-19T03:19:49.191Z,78.92
2019-05-19T03:22:36.943Z,79.56
2019-05-19T03:25:24.398Z,79.79
2019-05-19T03:28:11.704Z,79.73
2019-05-19T03:31:05.390Z,78.49
2019-05-19T03:33:56.787Z,77.75
2019-05-19T03:36:44.690Z,77.56
2019-05-19T03:39:35.593Z,77.59
2019-05-19T03:42:29.922Z,77.76
2019-05-19T03:45:17.093Z,78.02
2019-05-19T03:48:04.214Z,78.25
2019-05-19T03:50:51.064Z,78.24
2019-05-19T03:53:38.955Z,78.52
2019-05-19T03:56:34.980Z,78.94
2019-05-19T03:59:22.923Z,78.64
2019-05-19T04:02:24.681Z,77.21
2019-05-19T04:05:11.914Z,78.00
2019-05-19T04:07:59.614Z,78.81
2019-05-19T04:10:46.660Z,78.37
2019-05-19T04:13:34.264Z,79.60
2019-05-19T04:16:22.005Z,79.90
2019-05-19T04:19:09.429Z,79.81
2019-05-19T04:21:56.666Z,80.07
2019-05-19T04:24:43.802Z,80.04
2019-05-19T04:27:31.181Z,80.57
2019-05-19T04:30:18.467Z,80.41
2019-05-19T04:39:18.333Z,79.10
2019-05-19T04:42:05.580Z,79.48
2019-05-19T04:44:52.919Z,80.40
2019-05-19T04:47:39.732Z,80.63
2019-05-19T04:50:26.573Z,79.36
2019-05-19T04:53:14.140Z,80.31
2019-05-19T04:56:00.917Z,80.45
2019-05-19T04:58:47.994Z,80.64
2019-05-19T05:01:36.398Z,79.03
2019-05-19T05:04:29.101Z,79.90
2019-05-19T05:07:12.979Z,80.47
2019-05-19T05:10:01.141Z,80.71
2019-05-19T05:12:48.208Z,80.71
2019-05-19T05:15:35.681Z,81.02
2019-05-19T05:18:23.945Z,80.83
2019-05-19T05:21:11.948Z,80.63
2019-05-19T05:23:59.087Z,80.80
2019-05-19T05:26:46.201Z,80.57
2019-05-19T05:29:33.902Z,80.51
2019-05-19T05:32:20.780Z,80.61
2019-05-19T05:35:08.166Z,80.94
2019-05-19T05:37:56.816Z,80.57
2019-05-19T05:40:43.515Z,80.25
2019-05-19T05:43:31.343Z,78.48
2019-05-19T05:46:18.155Z,78.23
2019-05-19T05:49:06.089Z,78.15
2019-05-19T05:51:52.824Z,77.77
2019-05-19T05:54:40.275Z,77.68
2019-05-19T05:57:28.899Z,77.40
2019-05-19T06:00:16.087Z,77.40
2019-05-19T06:03:02.946Z,76.57
2019-05-19T06:05:50.246Z,75.63
2019-05-19T06:08:37.399Z,75.27
2019-05-19T06:11:25.592Z,72.71
2019-05-19T06:14:14.037Z,70.98
2019-05-19T06:17:01.178Z,71.94
2019-05-19T06:22:58.027Z,72.35
2019-05-19T06:25:44.925Z,71.55
2019-05-19T06:28:31.968Z,71.46
2019-05-19T06:31:20.075Z,70.27
2019-05-19T06:34:07.495Z,70.29
2019-05-19T06:36:55.158Z,67.30
2019-05-19T06:39:40.851Z,67.35
2019-05-19T06:45:38.699Z,68.13
2019-05-19T06:51:32.866Z,67.55
2019-05-19T06:54:19.932Z,66.23
2019-05-19T06:57:07.357Z,66.67
2019-05-19T06:59:54.317Z,66.21
2019-05-19T07:02:40.957Z,65.59
2019-05-19T07:05:29.529Z,65.08
2019-05-19T07:08:16.850Z,61.01
2019-05-19T07:11:04.224Z,63.41
2019-05-19T07:13:51.444Z,63.03
2019-05-19T07:16:38.509Z,58.51
2019-05-19T07:19:25.367Z,61.09
2019-05-19T07:22:12.625Z,61.58
2019-05-19T07:24:59.299Z,61.37
2019-05-19T07:27:46.655Z,61.51
2019-05-19T07:30:34.065Z,61.58
2019-05-19T07:33:20.831Z,60.88
2019-05-19T07:36:07.609Z,60.96
2019-05-19T07:39:08.959Z,61.18
2019-05-19T07:41:56.063Z,60.89
2019-05-19T07:44:45.402Z,60.48
2019-05-19T07:47:30.713Z,60.19
2019-05-19T07:50:17.633Z,59.95
2019-05-19T07:53:04.482Z,59.52
2019-05-19T07:55:51.230Z,60.18
2019-05-19T07:58:38.532Z,59.59
2019-05-19T08:01:25.582Z,59.81
2019-05-19T08:04:12.352Z,59.51
2019-05-19T08:06:59.382Z,58.99
2019-05-19T08:09:46.823Z,58.17
2019-05-19T08:12:33.577Z,57.61
2019-05-19T08:15:20.934Z,57.84
2019-05-19T08:18:08.122Z,56.61
2019-05-19T08:20:55.286Z,53.05
2019-05-19T08:23:56.847Z,54.43
2019-05-19T08:26:29.422Z,55.31
2019-05-19T08:29:16.263Z,55.09
2019-05-19T08:32:03.429Z,55.57
2019-05-19T08:34:50.698Z,54.95
2019-05-19T08:37:37.579Z,49.49
2019-05-19T08:46:37.617Z,54.30
2019-05-19T08:58:43.292Z,53.92
2019-05-19T09:01:31.453Z,52.96
2019-05-19T09:04:18.153Z,53.18
2019-05-19T09:07:05.151Z,53.27
2019-05-19T09:12:58.152Z,53.24
2019-05-19T09:15:45.337Z,52.92
2019-05-19T09:18:33.263Z,53.02
2019-05-19T09:24:33.121Z,51.39
2019-05-19T09:30:25.971Z,51.59
2019-05-19T09:33:13.034Z,51.55
2019-05-19T09:36:00.179Z,50.34
2019-05-19T09:38:47.113Z,51.18
2019-05-19T09:41:33.849Z,50.73
2019-05-19T09:44:35.296Z,45.04
2019-05-19T09:47:24.123Z,43.26
2019-05-19T09:50:11.198Z,46.50
2019-05-19T09:52:59.367Z,42.34
2019-05-19T09:55:46.902Z,46.84
2019-05-19T09:58:35.130Z,46.47
2019-05-19T10:01:23.785Z,46.77
2019-05-19T10:04:11.670Z,48.14
2019-05-19T10:06:58.342Z,48.30
2019-05-19T10:09:57.726Z,48.29
2019-05-19T10:12:48.223Z,48.28
2019-05-19T10:15:35.063Z,47.25
2019-05-19T10:18:22.759Z,48.07
2019-05-19T10:21:11.711Z,47.36
2019-05-19T10:24:04.582Z,46.28
2019-05-19T10:26:51.920Z,46.98
2019-05-19T10:29:38.877Z,47.12
2019-05-19T10:32:25.966Z,46.19
2019-05-19T10:35:16.206Z,46.35
2019-05-19T10:38:03.326Z,47.07
2019-05-19T10:40:50.060Z,46.02
2019-05-19T10:43:37.543Z,45.22
2019-05-19T10:49:31.858Z,45.71
2019-05-19T10:52:19.647Z,45.85
2019-05-19T10:55:06.426Z,46.01
2019-05-19T10:57:54.541Z,41.28
2019-05-19T11:00:49.100Z,43.50
2019-05-19T11:03:36.298Z,43.98
2019-05-19T11:24:59.579Z,43.61
2019-05-19T11:31:08.999Z,42.87
2019-05-19T11:33:55.835Z,43.08
2019-05-19T11:36:42.947Z,42.07
2019-05-19T11:39:29.973Z,42.71
2019-05-19T11:51:35.141Z,41.83
2019-05-19T11:54:21.934Z,41.48
2019-05-19T11:57:08.601Z,40.52
2019-05-19T12:03:01.319Z,38.92
2019-05-19T12:05:49.319Z,37.78
2019-05-19T12:11:42.843Z,34.72
2019-05-19T12:14:29.505Z,35.07
2019-05-19T12:17:16.336Z,34.23
2019-05-19T12:20:03.252Z,36.74
2019-05-19T12:22:50.385Z,36.78
2019-05-19T12:25:40.785Z,38.54
2019-05-19T12:28:27.877Z,39.11
2019-05-19T12:31:29.550Z,39.71
2019-05-19T12:34:16.343Z,39.68
2019-05-19T12:37:03.078Z,38.68
2019-05-19T12:39:50.646Z,38.92
2019-05-19T12:42:37.669Z,38.49
2019-05-19T12:45:24.916Z,39.34
2019-05-19T12:48:12.055Z,35.35
2019-05-19T12:50:58.991Z,38.16
2019-05-19T12:53:46.003Z,37.52
2019-05-19T12:56:39.849Z,34.91
2019-05-19T13:02:26.349Z,36.42
2019-05-19T13:05:13.017Z,37.45
2019-05-19T13:08:00.057Z,37.68
2019-05-19T13:10:47.774Z,37.94
2019-05-19T13:13:35.812Z,37.48
2019-05-19T13:16:23.767Z,37.23
2019-05-19T13:19:10.984Z,38.15
2019-05-19T13:22:00.127Z,36.90
2019-05-19T13:27:53.722Z,38.73
2019-05-19T13:30:43.533Z,37.25
2019-05-19T13:33:29.060Z,37.14
2019-05-19T13:36:17.714Z,37.18
2019-05-19T13:39:05.878Z,35.91
2019-05-19T13:41:52.636Z,36.62
2019-05-19T13:44:41.023Z,31.59
2019-05-19T13:47:28.738Z,34.17
2019-05-19T13:50:15.477Z,34.16
2019-05-19T13:53:16.844Z,35.46
2019-05-19T13:56:04.074Z,34.98
2019-05-19T13:58:50.663Z,35.25
2019-05-19T14:01:37.473Z,35.41
2019-05-19T14:07:30.731Z,35.18
2019-05-19T14:10:18.163Z,35.54
2019-05-19T14:16:11.255Z,34.26
2019-05-19T14:19:01.692Z,32.86
2019-05-19T14:21:48.869Z,34.84
2019-05-19T14:24:35.621Z,34.41
2019-05-19T14:27:30.438Z,34.51
2019-05-19T14:36:23.676Z,35.97
2019-05-19T14:39:10.609Z,36.35
2019-05-19T14:41:58.185Z,36.85
2019-05-19T14:44:45.864Z,36.28
2019-05-19T14:47:34.010Z,36.76
2019-05-19T14:53:28.174Z,36.86
2019-05-19T14:56:18.603Z,33.85
2019-05-19T14:59:06.806Z,33.54
2019-05-19T15:01:54.252Z,35.35
2019-05-19T15:04:45.010Z,34.16
2019-05-19T15:10:43.953Z,31.65
2019-05-19T15:16:43.065Z,31.46
2019-05-19T15:22:37.289Z,29.85
2019-05-19T15:28:31.158Z,30.11
2019-05-19T15:31:20.913Z,29.87
2019-05-19T15:34:08.060Z,29.65
2019-05-19T15:36:58.135Z,29.64
2019-05-19T15:42:53.850Z,28.55
2019-05-19T15:45:39.318Z,28.40
2019-05-19T15:48:26.035Z,28.36
2019-05-19T15:51:13.248Z,28.30
2019-05-19T15:54:00.394Z,28.03
2019-05-19T15:56:47.309Z,27.39
2019-05-19T15:59:35.732Z,24.06
2019-05-19T16:02:22.617Z,26.25
2019-05-19T16:05:09.612Z,26.95
2019-05-19T16:07:58.313Z,27.63
2019-05-19T16:13:51.964Z,28.74
2019-05-19T16:16:38.910Z,28.61
2019-05-19T16:19:27.545Z,28.76
2019-05-19T16:22:14.828Z,28.57
2019-05-19T16:28:08.247Z,27.21
2019-05-19T16:30:55.345Z,27.53
2019-05-19T16:33:43.380Z,27.98
2019-05-19T16:36:30.433Z,27.78
2019-05-19T16:42:24.684Z,28.35
2019-05-19T16:45:11.529Z,28.71
2019-05-19T16:47:58.829Z,29.30
2019-05-19T16:50:45.979Z,28.93
2019-05-19T16:53:33.274Z,28.42
2019-05-19T16:56:22.522Z,28.84
2019-05-19T16:59:09.434Z,28.21
2019-05-19T17:01:57.263Z,22.14
2019-05-19T17:04:44.296Z,25.59
2019-05-19T17:07:31.477Z,26.22
2019-05-19T17:10:18.617Z,22.72
2019-05-19T17:13:05.629Z,25.85
2019-05-19T17:15:52.376Z,26.76
2019-05-19T17:18:40.790Z,27.01
2019-05-19T17:21:28.096Z,27.24
2019-05-19T17:24:15.327Z,27.25
2019-05-19T17:27:02.367Z,27.34
2019-05-19T17:29:49.274Z,27.22
2019-05-19T17:32:36.613Z,27.50
2019-05-19T17:35:24.225Z,27.83
2019-05-19T17:38:11.243Z,27.46
2019-05-19T17:40:59.584Z,27.83
2019-05-19T17:43:46.420Z,27.83
2019-05-19T17:46:33.673Z,27.69
2019-05-19T17:49:21.065Z,27.67
2019-05-19T17:52:07.850Z,28.38
2019-05-19T17:54:55.048Z,24.69
2019-05-19T17:57:57.445Z,27.06
2019-05-19T18:00:45.890Z,22.98
2019-05-19T18:03:33.383Z,26.37
2019-05-19T18:06:20.299Z,27.98
2019-05-19T18:09:21.757Z,28.62
2019-05-19T18:12:08.472Z,28.66
2019-05-19T18:14:55.388Z,29.40
2019-05-19T18:17:42.430Z,30.13
2019-05-19T18:20:29.519Z,30.85
2019-05-19T18:23:23.493Z,31.64
2019-05-19T18:26:10.830Z,32.57
2019-05-19T18:28:57.695Z,34.23
2019-05-19T18:31:45.174Z,35.42
2019-05-19T18:34:33.070Z,37.00
2019-05-19T18:37:20.114Z,37.82
2019-05-19T18:43:14.159Z,39.88
2019-05-19T18:46:01.190Z,40.67
2019-05-19T18:48:48.510Z,40.28
2019-05-19T18:51:35.630Z,42.12
2019-05-19T18:54:23.161Z,42.81
2019-05-19T18:57:10.194Z,43.26
2019-05-19T18:59:57.064Z,43.60
2019-05-19T19:02:44.030Z,43.87
2019-05-19T19:05:31.451Z,44.81
2019-05-19T19:08:19.649Z,45.52
2019-05-19T19:11:07.379Z,46.30
2019-05-19T19:13:54.290Z,46.72
2019-05-19T19:16:40.997Z,47.04
2019-05-19T19:19:28.218Z,47.42
2019-05-19T19:22:14.946Z,48.03
2019-05-19T19:25:01.736Z,48.65
2019-05-19T19:27:49.538Z,48.86
2019-05-19T19:30:36.761Z,48.85
2019-05-19T19:33:24.636Z,49.15
2019-05-19T19:36:11.755Z,49.54
2019-05-19T19:38:59.669Z,50.65
2019-05-19T19:42:01.327Z,51.32
2019-05-19T19:44:55.041Z,52.09
2019-05-19T19:50:48.198Z,53.28
2019-05-19T19:53:36.093Z,54.28
2019-05-19T19:56:23.352Z,55.43
2019-05-19T19:59:11.451Z,55.45
2019-05-19T20:02:12.712Z,54.90
2019-05-19T20:04:59.523Z,54.35
2019-05-19T20:07:46.519Z,54.51
2019-05-19T20:10:40.085Z,56.33
2019-05-19T20:13:27.217Z,57.28
2019-05-19T20:16:14.214Z,57.79
2019-05-19T20:19:01.576Z,57.59
2019-05-19T20:21:51.873Z,55.74
2019-05-19T20:27:45.023Z,57.30
2019-05-19T20:30:36.204Z,57.66
2019-05-19T20:33:19.978Z,57.85
2019-05-19T20:36:06.991Z,58.18
2019-05-19T20:42:08.317Z,59.06
2019-05-19T20:44:55.657Z,59.06
2019-05-19T20:47:44.656Z,59.20
2019-05-19T20:50:34.636Z,60.22
2019-05-19T20:53:22.438Z,60.52
2019-05-19T20:56:10.126Z,61.20
2019-05-19T20:58:57.877Z,61.60
2019-05-19T21:01:45.170Z,61.85
2019-05-19T21:04:31.748Z,62.21
2019-05-19T21:07:21.301Z,63.24
2019-05-19T21:10:05.861Z,63.85
2019-05-19T21:12:53.576Z,64.61
2019-05-19T21:15:40.632Z,64.68
2019-05-19T21:18:27.375Z,65.75
2019-05-19T21:21:22.016Z,66.50
2019-05-19T21:24:11.573Z,66.69
2019-05-19T21:26:57.049Z,66.63
2019-05-19T21:29:44.199Z,66.89
2019-05-19T21:32:30.881Z,67.02
2019-05-19T21:35:18.661Z,66.90
2019-05-19T21:38:06.248Z,67.00
2019-05-19T21:40:53.744Z,67.03
2019-05-19T21:43:41.363Z,67.22
2019-05-19T21:46:28.236Z,67.57
2019-05-19T21:49:15.340Z,67.32
2019-05-19T21:52:02.266Z,68.12
2019-05-19T21:54:49.590Z,68.66
2019-05-19T21:57:43.861Z,68.54
2019-05-19T22:00:30.462Z,69.73
2019-05-19T22:03:18.398Z,68.20
2019-05-19T22:06:06.315Z,68.22
2019-05-19T22:08:53.255Z,68.54
2019-05-19T22:11:39.982Z,68.27
2019-05-19T22:14:27.404Z,68.05
2019-05-19T22:17:14.894Z,67.10
2019-05-19T22:20:02.109Z,66.61
2019-05-19T22:22:50.233Z,66.43
2019-05-19T22:25:51.320Z,66.37
2019-05-19T22:28:38.438Z,67.59
2019-05-19T22:31:36.280Z,67.61
2019-05-19T22:34:12.874Z,68.57
2019-05-19T22:36:59.579Z,68.89
2019-05-19T22:39:46.784Z,69.49
2019-05-19T22:42:35.726Z,69.10
2019-05-19T22:45:22.884Z,69.62
2019-05-19T22:48:09.683Z,70.24
2019-05-19T22:50:56.582Z,70.08
2019-05-19T22:53:44.015Z,70.87
2019-05-19T22:56:31.179Z,71.16
2019-05-19T22:59:19.985Z,71.37
2019-05-19T23:02:05.645Z,72.55
2019-05-19T23:04:53.596Z,73.31
2019-05-19T23:07:48.494Z,73.49
2019-05-19T23:10:36.252Z,73.25
2019-05-19T23:13:23.133Z,73.24
2019-05-19T23:19:16.097Z,73.63
2019-05-19T23:22:03.737Z,73.62
2019-05-19T23:24:50.522Z,74.08
2019-05-19T23:27:37.759Z,73.87
2019-05-19T23:30:24.841Z,73.06
2019-05-19T23:33:11.645Z,73.00
2019-05-19T23:35:59.472Z,72.07
2019-05-19T23:38:47.455Z,72.10
2019-05-19T23:41:34.608Z,73.76
2019-05-19T23:44:28.663Z,73.21
2019-05-19T23:47:16.261Z,74.18
2019-05-19T23:50:03.201Z,74.20
2019-05-19T23:52:52.395Z,74.32
2019-05-19T23:55:40.407Z,75.06
2019-05-19T23:58:34.351Z,74.91
